Time,TemperatureF,DewpointF,PressureIn,WindDirection,WindDirectionDegrees,WindSpeedMPH,WindSpeedGustMPH,Humidity,HourlyPrecipIn,Conditions,Clouds,dailyrainin,SoftwareType,DateUTC
2013-04-22 00:00:00,59.0,55.8,29.83,SSW,202,0.0,0.0,89,0.00,,,0.00,Weather View 32 v70,2013-04-22 07:00:00,
2013-04-22 00:30:00,61.0,55.5,29.84,ESE,112,0.0,0.0,82,0.00,,,0.00,Weather View 32 v70,2013-04-22 07:30:00,
2013-04-22 01:00:00,62.0,54.7,29.84,ENE,67,0.0,0.0,77,0.00,,,0.00,Weather View 32 v70,2013-04-22 08:00:00,
2013-04-22 01:30:00,61.0,54.8,29.83,ENE,67,0.0,0.0,80,0.00,,,0.00,Weather View 32 v70,2013-04-22 08:30:00,
2013-04-22 02:00:00,58.0,54.8,29.82,WSW,247,0.0,3.0,89,0.00,,,0.00,Weather View 32 v70,2013-04-22 09:00:00,
2013-04-22 02:30:00,56.0,53.4,29.79,WSW,247,0.0,3.0,91,0.00,,,0.00,Weather View 32 v70,2013-04-22 09:30:00,
2013-04-22 03:00:00,55.0,51.8,29.78,WSW,247,0.0,2.0,89,0.00,,,0.00,Weather View 32 v70,2013-04-22 10:00:00,
2013-04-22 03:30:00,56.0,52.5,29.78,SSE,157,0.0,4.0,88,0.00,,,0.00,Weather View 32 v70,2013-04-22 10:30:00,
2013-04-22 04:00:00,56.0,52.8,29.78,SSE,157,0.0,5.0,89,0.00,,,0.00,Weather View 32 v70,2013-04-22 11:00:00,
2013-04-22 04:30:00,56.0,52.5,29.78,SSE,157,0.0,5.0,88,0.00,,,0.00,Weather View 32 v70,2013-04-22 11:30:00,
2013-04-22 05:00:00,55.0,52.4,29.78,ESE,112,0.0,4.0,91,0.00,,,0.00,Weather View 32 v70,2013-04-22 12:00:00,
2013-04-22 05:30:00,54.0,51.4,29.77,South,180,0.0,4.0,91,0.00,,,0.00,Weather View 32 v70,2013-04-22 12:30:00,
2013-04-22 06:00:00,54.0,50.8,29.78,South,180,0.0,2.0,89,0.00,,,0.00,Weather View 32 v70,2013-04-22 13:00:00,
2013-04-22 06:30:00,53.0,48.6,29.78,SE,135,0.0,2.0,85,0.00,,,0.00,Weather View 32 v70,2013-04-22 13:30:00,
2013-04-22 07:00:00,55.0,51.5,29.80,ESE,112,0.0,0.0,88,0.00,,,0.00,Weather View 32 v70,2013-04-22 14:00:00,
2013-04-22 07:30:00,60.0,56.4,29.83,SSE,157,0.0,2.0,88,0.00,,,0.00,Weather View 32 v70,2013-04-22 14:30:00,
2013-04-22 08:00:00,64.0,54.0,29.85,SSE,157,3.0,6.0,70,0.00,,,0.00,Weather View 32 v70,2013-04-22 15:00:00,
2013-04-22 08:30:00,67.0,52.2,29.88,South,180,0.0,7.0,59,0.00,,,0.00,Weather View 32 v70,2013-04-22 15:30:00,
2013-04-22 09:00:00,69.0,51.1,29.89,ESE,112,4.0,8.0,53,0.00,,,0.00,Weather View 32 v70,2013-04-22 16:00:00,
2013-04-22 09:30:00,73.0,50.9,29.91,WSW,247,0.0,9.0,46,0.00,,,0.00,Weather View 32 v70,2013-04-22 16:30:00,
2013-04-22 10:00:00,75.0,50.3,29.92,South,180,0.0,9.0,42,0.00,,,0.00,Weather View 32 v70,2013-04-22 17:00:00,
2013-04-22 10:05:00,75.0,50.3,29.92,South,180,0.0,9.0,42,0.00,,,0.00,Weather View 32 v70,2013-04-22 17:05:00,
2013-04-22 10:30:00,78.0,49.5,29.93,SSW,202,0.0,9.0,37,0.00,,,0.00,Weather View 32 v70,2013-04-22 17:30:00,
2013-04-22 11:00:00,79.0,49.7,29.94,SSW,202,2.0,9.0,36,0.00,,,0.00,Weather View 32 v70,2013-04-22 18:00:00,
2013-04-22 11:05:00,79.0,49.7,29.94,SSW,202,2.0,9.0,36,0.00,,,0.00,Weather View 32 v70,2013-04-22 18:05:00,
2013-04-22 11:30:00,81.0,50.7,29.94,WNW,292,0.0,9.0,35,0.00,,,0.00,Weather View 32 v70,2013-04-22 18:30:00,
2013-04-22 12:00:00,82.0,50.0,29.93,WNW,292,0.0,8.0,33,0.00,,,0.00,Weather View 32 v70,2013-04-22 19:00:00,
2013-04-22 12:06:00,82.0,50.0,29.93,WNW,292,0.0,8.0,33,0.00,,,0.00,Weather View 32 v70,2013-04-22 19:06:00,
2013-04-22 12:30:00,84.0,50.0,29.91,SW,225,0.0,8.0,31,0.00,,,0.00,Weather View 32 v70,2013-04-22 19:30:00,
2013-04-22 13:00:00,84.0,50.0,29.90,NW,315,0.0,8.0,31,0.00,,,0.00,Weather View 32 v70,2013-04-22 20:00:00,
2013-04-22 13:07:00,84.0,50.0,29.90,NW,315,0.0,8.0,31,0.00,,,0.00,Weather View 32 v70,2013-04-22 20:07:00,
2013-04-22 13:30:00,85.0,50.9,29.89,WNW,292,0.0,0.0,31,0.00,,,0.00,Weather View 32 v70,2013-04-22 20:30:00,
2013-04-22 14:00:00,85.0,47.2,29.89,West,270,0.0,0.0,27,0.00,,,0.00,Weather View 32 v70,2013-04-22 21:00:00,
2013-04-22 14:07:00,85.0,47.2,29.89,West,270,0.0,0.0,27,0.00,,,0.00,Weather View 32 v70,2013-04-22 21:07:00,
2013-04-22 14:30:00,87.0,46.8,29.88,West,270,0.0,0.0,25,0.00,,,0.00,Weather View 32 v70,2013-04-22 21:30:00,
2013-04-22 15:00:00,87.0,47.9,29.87,West,270,0.0,0.0,26,0.00,,,0.00,Weather View 32 v70,2013-04-22 22:00:00,
2013-04-22 15:08:00,87.0,47.9,29.87,West,270,0.0,0.0,26,0.00,,,0.00,Weather View 32 v70,2013-04-22 22:08:00,
2013-04-22 15:30:00,87.0,46.8,29.86,WNW,292,0.0,6.0,25,0.00,,,0.00,Weather View 32 v70,2013-04-22 22:30:00,
2013-04-22 16:00:00,87.0,43.4,29.85,NW,315,0.0,9.0,22,0.00,,,0.00,Weather View 32 v70,2013-04-22 23:00:00,
2013-04-22 16:08:00,87.0,43.4,29.85,NW,315,0.0,9.0,22,0.00,,,0.00,Weather View 32 v70,2013-04-22 23:08:00,
2013-04-22 16:30:00,87.0,45.7,29.83,NNW,337,6.0,9.0,24,0.00,,,0.00,Weather View 32 v70,2013-04-22 23:30:00,
2013-04-22 17:00:00,87.0,45.7,29.82,NW,315,5.0,10.0,24,0.00,,,0.00,Weather View 32 v70,2013-04-23 00:00:00,
2013-04-22 17:09:00,87.0,45.7,29.82,NW,315,5.0,10.0,24,0.00,,,0.00,Weather View 32 v70,2013-04-23 00:09:00,
2013-04-22 17:30:00,86.0,47.0,29.81,WNW,292,6.0,12.0,26,0.00,,,0.00,Weather View 32 v70,2013-04-23 00:30:00,
2013-04-22 18:00:00,84.0,48.2,29.81,WNW,292,3.0,13.0,29,0.00,,,0.00,Weather View 32 v70,2013-04-23 01:00:00,
2013-04-22 18:09:00,84.0,48.2,29.81,WNW,292,3.0,13.0,29,0.00,,,0.00,Weather View 32 v70,2013-04-23 01:09:00,
2013-04-22 18:30:00,84.0,50.0,29.79,WNW,292,8.0,13.0,31,0.00,,,0.00,Weather View 32 v70,2013-04-23 01:30:00,
2013-04-22 19:00:00,82.0,51.6,29.78,West,270,4.0,12.0,35,0.00,,,0.00,Weather View 32 v70,2013-04-23 02:00:00,
2013-04-22 19:30:00,78.0,51.0,29.77,WNW,292,3.0,11.0,39,0.00,,,0.00,Weather View 32 v70,2013-04-23 02:30:00,
2013-04-22 20:00:00,75.0,49.6,29.75,WNW,292,3.0,7.0,41,0.00,,,0.00,Weather View 32 v70,2013-04-23 03:00:00,
2013-04-22 20:30:00,73.0,50.3,29.75,WNW,292,3.0,9.0,45,0.00,,,0.00,Weather View 32 v70,2013-04-23 03:30:00,
2013-04-22 21:00:00,71.0,49.7,29.75,WNW,292,5.0,9.0,47,0.00,,,0.00,Weather View 32 v70,2013-04-23 04:00:00,
2013-04-22 21:30:00,69.0,48.4,29.75,WNW,292,3.0,6.0,48,0.00,,,0.00,Weather View 32 v70,2013-04-23 04:30:00,
2013-04-22 22:00:00,67.0,48.7,29.75,WNW,292,0.0,6.0,52,0.00,,,0.00,Weather View 32 v70,2013-04-23 05:00:00,
2013-04-22 22:30:00,65.0,50.3,29.74,WNW,292,0.0,6.0,59,0.00,,,0.00,Weather View 32 v70,2013-04-23 05:30:00,
2013-04-22 23:00:00,63.0,49.7,29.73,NE,45,0.0,3.0,62,0.00,,,0.00,Weather View 32 v70,2013-04-23 06:00:00,
2013-04-22 23:30:00,63.0,50.6,29.72,SSW,202,0.0,3.0,64,0.00,,,0.00,Weather View 32 v70,2013-04-23 06:30:00,